createdAt,value
2023-03-10T00:01:31.119Z,16.17
2023-03-10T00:03:59.856Z,14.50
2023-03-10T00:06:29.280Z,14.47
2023-03-10T00:08:56.064Z,32.30
2023-03-10T00:11:22.781Z,27.60
2023-03-10T00:13:49.530Z,17.23
2023-03-10T00:16:22.325Z,16.23
2023-03-10T00:18:49.632Z,27.07
2023-03-10T00:21:19.794Z,19.50
2023-03-10T00:23:47.173Z,17.67
2023-03-10T00:26:15.924Z,13.23
2023-03-10T00:28:42.797Z,12.63
2023-03-10T00:31:15.428Z,10.97
2023-03-10T00:33:42.772Z,12.23
2023-03-10T00:36:13.619Z,12.93
2023-03-10T00:38:41.922Z,12.73
2023-03-10T00:41:12.078Z,12.47
2023-03-10T00:43:39.148Z,12.53
2023-03-10T00:46:06.468Z,11.77
2023-03-10T00:48:33.998Z,11.50
2023-03-10T00:51:01.193Z,11.87
2023-03-10T00:53:28.784Z,11.87
2023-03-10T00:56:04.857Z,11.77
2023-03-10T00:58:33.057Z,12.67
2023-03-10T01:01:00.150Z,12.43
2023-03-10T01:03:27.444Z,11.53
2023-03-10T01:05:55.213Z,12.20
2023-03-10T01:08:22.428Z,13.00
2023-03-10T01:10:49.949Z,13.07
2023-03-10T01:13:18.097Z,12.47
2023-03-10T01:15:44.894Z,12.17
2023-03-10T01:18:11.612Z,11.87
2023-03-10T01:20:38.340Z,12.13
2023-03-10T01:23:05.188Z,12.00
2023-03-10T01:25:32.055Z,12.83
2023-03-10T01:27:58.703Z,12.57
2023-03-10T01:30:25.477Z,12.93
2023-03-10T01:32:52.254Z,13.10
2023-03-10T01:35:19.038Z,13.03
2023-03-10T01:37:45.850Z,12.50
2023-03-10T01:40:16.631Z,12.93
2023-03-10T01:42:43.982Z,13.17
2023-03-10T01:45:30.792Z,12.30
2023-03-10T01:47:57.604Z,12.50
2023-03-10T01:50:24.790Z,12.97
2023-03-10T01:52:58.498Z,12.67
2023-03-10T01:55:29.952Z,12.67
2023-03-10T01:57:57.859Z,12.90
2023-03-10T02:00:26.548Z,13.77
2023-03-10T02:03:12.824Z,13.13
2023-03-10T02:05:45.491Z,12.23
2023-03-10T02:08:12.835Z,12.70
2023-03-10T02:10:39.603Z,13.40
2023-03-10T02:13:06.794Z,13.43
2023-03-10T02:15:33.845Z,12.67
2023-03-10T02:18:03.075Z,12.97
2023-03-10T02:20:45.005Z,13.50
2023-03-10T02:23:19.409Z,13.23
2023-03-10T02:25:55.594Z,14.30
2023-03-10T02:28:23.637Z,13.40
2023-03-10T02:30:53.340Z,12.77
2023-03-10T02:33:24.246Z,13.80
2023-03-10T02:35:51.599Z,12.77
2023-03-10T02:38:18.523Z,13.40
2023-03-10T02:40:45.406Z,12.63
2023-03-10T02:43:12.146Z,14.53
2023-03-10T02:45:41.390Z,13.97
2023-03-10T02:48:14.670Z,13.17
2023-03-10T02:50:44.774Z,13.87
2023-03-10T02:53:16.045Z,12.60
2023-03-10T02:55:42.875Z,12.27
2023-03-10T02:58:10.096Z,13.17
2023-03-10T03:00:39.219Z,14.77
2023-03-10T03:03:07.285Z,13.70
2023-03-10T03:05:34.690Z,13.47
2023-03-10T03:08:01.654Z,14.40
2023-03-10T03:10:30.017Z,13.63
2023-03-10T03:12:57.025Z,15.00
2023-03-10T03:15:26.049Z,15.47
2023-03-10T03:17:54.235Z,15.90
2023-03-10T03:20:21.846Z,15.70
2023-03-10T03:22:48.593Z,16.80
2023-03-10T03:25:18.976Z,16.90
2023-03-10T03:27:46.233Z,17.83
2023-03-10T03:30:22.458Z,17.97
2023-03-10T03:32:49.840Z,17.03
2023-03-10T03:35:29.408Z,18.20
2023-03-10T03:37:56.573Z,16.03
2023-03-10T03:40:25.240Z,17.37
2023-03-10T03:42:53.616Z,17.80
2023-03-10T03:45:23.668Z,17.57
2023-03-10T03:47:50.977Z,16.53
2023-03-10T03:50:19.124Z,17.03
2023-03-10T03:52:46.327Z,16.27
2023-03-10T03:55:16.151Z,17.90
2023-03-10T03:57:45.886Z,18.03
2023-03-10T04:00:19.979Z,16.93
2023-03-10T04:02:47.304Z,16.20
2023-03-10T04:05:14.366Z,16.53
2023-03-10T04:07:42.428Z,16.50
2023-03-10T04:10:12.764Z,19.90
2023-03-10T04:12:39.618Z,17.50
2023-03-10T04:15:08.384Z,16.93
2023-03-10T04:17:36.093Z,17.63
2023-03-10T04:20:08.106Z,17.97
2023-03-10T04:22:36.374Z,18.10
2023-03-10T04:25:04.316Z,17.20
2023-03-10T04:27:31.799Z,18.60
2023-03-10T04:29:58.604Z,16.77
2023-03-10T04:32:25.835Z,16.90
2023-03-10T04:34:52.889Z,17.27
2023-03-10T04:37:21.131Z,16.40
2023-03-10T04:39:47.996Z,15.47
2023-03-10T04:42:14.739Z,15.47
2023-03-10T04:44:41.816Z,17.27
2023-03-10T04:47:08.564Z,16.37
2023-03-10T04:49:37.407Z,15.83
2023-03-10T04:52:05.495Z,14.87
2023-03-10T04:54:32.344Z,15.03
2023-03-10T04:56:59.092Z,15.40
2023-03-10T04:59:25.902Z,14.17
2023-03-10T05:01:52.648Z,14.63
2023-03-10T05:04:19.503Z,13.80
2023-03-10T05:06:50.163Z,13.27
2023-03-10T05:09:17.174Z,13.97
2023-03-10T05:11:43.861Z,14.27
2023-03-10T05:14:12.285Z,14.07
2023-03-10T05:16:39.052Z,12.43
2023-03-10T05:19:06.251Z,12.87
2023-03-10T05:21:33.107Z,12.73
2023-03-10T05:24:03.905Z,13.40
2023-03-10T05:26:33.479Z,13.60
2023-03-10T05:29:03.894Z,12.67
2023-03-10T05:31:30.887Z,13.87
2023-03-10T05:33:57.700Z,14.40
2023-03-10T05:36:24.400Z,13.13
2023-03-10T05:38:51.370Z,14.00
2023-03-10T05:41:18.326Z,13.10
2023-03-10T05:43:45.062Z,13.77
2023-03-10T05:46:12.160Z,14.30
2023-03-10T05:48:39.311Z,14.33
2023-03-10T05:51:08.743Z,13.93
2023-03-10T05:53:37.081Z,13.23
2023-03-10T05:56:18.092Z,13.97
2023-03-10T05:58:46.566Z,13.83
2023-03-10T06:01:14.065Z,12.93
2023-03-10T06:03:40.922Z,12.97
2023-03-10T06:06:07.884Z,14.47
2023-03-10T06:08:35.388Z,12.87
2023-03-10T06:11:02.767Z,12.97
2023-03-10T06:13:29.448Z,12.40
2023-03-10T06:15:58.923Z,12.87
2023-03-10T06:18:26.963Z,12.63
2023-03-10T06:20:54.428Z,12.27
2023-03-10T06:23:22.204Z,11.43
2023-03-10T06:26:00.205Z,11.77
2023-03-10T06:28:32.800Z,12.27
2023-03-10T06:31:01.306Z,11.33
2023-03-10T06:33:29.626Z,11.80
2023-03-10T06:35:57.318Z,13.50
2023-03-10T06:38:24.646Z,14.18
2023-03-10T06:40:51.773Z,11.57
2023-03-10T06:43:18.967Z,11.67
2023-03-10T06:45:46.926Z,11.40
2023-03-10T06:48:14.568Z,11.13
2023-03-10T06:50:49.747Z,12.63
2023-03-10T06:53:19.539Z,12.13
2023-03-10T06:55:57.329Z,11.73
2023-03-10T06:58:23.996Z,12.90
2023-03-10T07:00:50.807Z,11.10
2023-03-10T07:03:18.562Z,11.47
2023-03-10T07:05:45.308Z,11.50
2023-03-10T07:08:12.129Z,11.63
2023-03-10T07:10:38.902Z,9.67
2023-03-10T07:13:05.783Z,10.20
2023-03-10T07:15:32.640Z,10.30
2023-03-10T07:18:00.279Z,11.80
2023-03-10T07:20:27.189Z,11.23
2023-03-10T07:22:53.925Z,11.80
2023-03-10T07:25:20.585Z,10.07
2023-03-10T07:27:47.420Z,11.33
2023-03-10T07:30:14.474Z,11.70
2023-03-10T07:32:41.428Z,11.23
2023-03-10T07:35:09.178Z,10.70
2023-03-10T07:37:40.607Z,11.17
2023-03-10T07:40:09.758Z,11.10
2023-03-10T07:42:36.454Z,11.50
2023-03-10T07:45:03.756Z,11.13
2023-03-10T07:47:30.814Z,11.17
2023-03-10T07:49:57.534Z,12.77
2023-03-10T07:52:24.558Z,12.77
2023-03-10T07:54:51.450Z,12.13
2023-03-10T07:57:18.249Z,12.07
2023-03-10T07:59:45.080Z,11.17
2023-03-10T08:02:13.660Z,11.17
2023-03-10T08:04:41.381Z,11.20
2023-03-10T08:07:08.605Z,12.97
2023-03-10T08:09:35.685Z,10.90
2023-03-10T08:12:03.501Z,10.67
2023-03-10T08:14:31.850Z,12.97
2023-03-10T08:16:59.469Z,12.63
2023-03-10T08:19:27.648Z,12.47
2023-03-10T08:21:56.063Z,12.80
2023-03-10T08:24:23.293Z,12.07
2023-03-10T08:26:50.266Z,13.07
2023-03-10T08:29:17.555Z,12.93
2023-03-10T08:31:44.692Z,12.80
2023-03-10T08:34:11.566Z,12.07
2023-03-10T08:36:39.124Z,11.73
2023-03-10T08:39:07.563Z,11.00
2023-03-10T08:41:49.805Z,12.17
2023-03-10T08:44:18.659Z,12.33
2023-03-10T08:46:47.770Z,11.20
2023-03-10T08:49:16.930Z,10.73
2023-03-10T08:51:43.927Z,12.03
2023-03-10T08:54:12.655Z,12.13
2023-03-10T08:56:39.548Z,13.30
2023-03-10T08:59:06.312Z,12.23
2023-03-10T09:01:36.722Z,13.03
2023-03-10T09:04:06.098Z,11.57
2023-03-10T09:06:33.697Z,13.00
2023-03-10T09:09:00.777Z,12.07
2023-03-10T09:11:31.835Z,13.37
2023-03-10T09:13:59.555Z,12.33
2023-03-10T09:16:28.694Z,12.70
2023-03-10T09:18:59.392Z,12.77
2023-03-10T09:21:27.542Z,13.37
2023-03-10T09:23:54.412Z,12.37
2023-03-10T09:26:22.074Z,12.70
2023-03-10T09:28:50.958Z,12.70
2023-03-10T09:31:21.976Z,13.07
2023-03-10T09:33:48.930Z,13.80
2023-03-10T09:36:16.499Z,12.80
2023-03-10T09:38:43.271Z,13.80
2023-03-10T09:41:41.535Z,12.57
2023-03-10T09:44:26.068Z,12.83
2023-03-10T09:47:22.898Z,11.40
2023-03-10T09:50:03.266Z,10.53
2023-03-10T09:52:44.441Z,10.70
2023-03-10T09:55:22.469Z,11.33
2023-03-10T09:57:52.039Z,11.20
2023-03-10T10:00:23.783Z,9.80
2023-03-10T10:02:59.958Z,9.50
2023-03-10T10:05:32.989Z,10.10
2023-03-10T10:08:03.071Z,11.40
2023-03-10T10:10:37.007Z,8.83
2023-03-10T10:13:16.149Z,8.70
2023-03-10T10:16:07.371Z,8.30
2023-03-10T10:18:48.497Z,7.70
2023-03-10T10:21:30.651Z,7.30
2023-03-10T10:24:00.444Z,8.17
2023-03-10T10:26:28.154Z,7.37
2023-03-10T10:29:01.182Z,7.97
2023-03-10T10:31:30.943Z,8.70
2023-03-10T10:33:59.067Z,8.93
2023-03-10T10:36:35.205Z,7.40
2023-03-10T10:39:12.708Z,8.57
2023-03-10T10:41:40.066Z,7.70
2023-03-10T10:44:14.571Z,7.43
2023-03-10T10:46:52.604Z,8.33
2023-03-10T10:49:25.988Z,8.60
2023-03-10T10:52:05.161Z,7.57
2023-03-10T10:54:37.913Z,8.40
2023-03-10T10:57:25.876Z,7.47
2023-03-10T10:59:52.757Z,8.00
2023-03-10T11:02:34.495Z,9.17
2023-03-10T11:05:16.532Z,7.20
2023-03-10T11:07:44.577Z,8.00
2023-03-10T11:10:16.534Z,8.80
2023-03-10T11:13:06.474Z,8.17
2023-03-10T11:15:44.883Z,8.40
2023-03-10T11:18:18.997Z,9.10
2023-03-10T11:20:55.358Z,8.53
2023-03-10T11:23:29.600Z,9.20
2023-03-10T11:26:21.217Z,8.80
2023-03-10T11:29:02.183Z,8.03
2023-03-10T11:31:43.916Z,7.33
2023-03-10T11:34:30.336Z,6.93
2023-03-10T11:37:33.208Z,7.60
2023-03-10T11:40:26.653Z,7.90
2023-03-10T11:43:05.509Z,6.00
2023-03-10T11:45:38.987Z,6.70
2023-03-10T11:48:39.074Z,5.80
2023-03-10T11:51:06.211Z,6.30
2023-03-10T11:53:45.063Z,5.57
2023-03-10T11:56:14.975Z,5.80
2023-03-10T11:59:00.131Z,5.77
2023-03-10T12:01:56.846Z,5.90
2023-03-10T12:04:45.164Z,6.40
2023-03-10T12:07:40.202Z,6.80
2023-03-10T12:10:12.890Z,6.83
2023-03-10T12:12:45.507Z,7.60
2023-03-10T12:15:20.155Z,6.83
2023-03-10T12:17:49.285Z,6.93
2023-03-10T12:20:18.902Z,8.13
2023-03-10T12:22:57.519Z,7.40
2023-03-10T12:25:30.391Z,7.07
2023-03-10T12:28:28.909Z,7.03
2023-03-10T12:30:56.513Z,6.67
2023-03-10T12:33:38.645Z,7.33
2023-03-10T12:36:18.138Z,7.73
2023-03-10T12:39:02.252Z,7.60
2023-03-10T12:41:28.883Z,7.43
2023-03-10T12:44:14.981Z,8.10
2023-03-10T12:46:53.169Z,8.80
2023-03-10T12:49:23.262Z,7.50
2023-03-10T12:52:02.279Z,9.13
2023-03-10T12:54:47.201Z,8.47
2023-03-10T12:57:39.970Z,8.77
2023-03-10T13:00:22.080Z,8.13
2023-03-10T13:03:07.497Z,8.17
2023-03-10T13:05:38.860Z,8.30
2023-03-10T13:08:45.681Z,7.73
2023-03-10T13:11:18.648Z,7.60
2023-03-10T13:13:50.372Z,7.20
2023-03-10T13:16:19.992Z,8.10
2023-03-10T13:18:51.966Z,7.33
2023-03-10T13:21:34.222Z,8.47
2023-03-10T13:24:03.185Z,7.90
2023-03-10T13:26:30.640Z,7.77
2023-03-10T13:29:00.814Z,7.63
2023-03-10T13:31:30.525Z,8.17
2023-03-10T13:33:58.466Z,8.37
2023-03-10T13:36:36.735Z,7.67
2023-03-10T13:39:11.918Z,7.77
2023-03-10T13:41:41.213Z,7.90
2023-03-10T13:44:17.586Z,8.13
2023-03-10T13:46:53.763Z,7.47
2023-03-10T13:49:25.463Z,7.40
2023-03-10T13:51:58.689Z,7.40
2023-03-10T13:54:28.579Z,7.77
2023-03-10T13:56:58.692Z,7.27
2023-03-10T13:59:31.713Z,7.83
2023-03-10T14:02:00.944Z,7.70
2023-03-10T14:04:43.149Z,7.03
2023-03-10T14:07:22.854Z,7.93
2023-03-10T14:10:10.419Z,6.90
2023-03-10T14:12:45.047Z,6.37
2023-03-10T14:15:14.914Z,6.10
2023-03-10T14:17:43.366Z,6.60
2023-03-10T14:20:31.608Z,7.43
2023-03-10T14:22:58.940Z,7.10
2023-03-10T14:25:27.240Z,7.30
2023-03-10T14:27:56.956Z,6.90
2023-03-10T14:30:32.265Z,6.83
2023-03-10T14:33:00.974Z,7.03
2023-03-10T14:35:29.303Z,6.77
2023-03-10T14:37:56.256Z,6.27
2023-03-10T14:40:24.876Z,7.00
2023-03-10T14:42:53.060Z,6.60
2023-03-10T14:45:25.376Z,6.40
2023-03-10T14:47:52.619Z,6.43
2023-03-10T14:50:20.738Z,7.50
2023-03-10T14:52:47.436Z,7.27
2023-03-10T14:55:14.638Z,6.60
2023-03-10T14:57:43.150Z,6.93
2023-03-10T15:00:28.280Z,6.80
2023-03-10T15:02:55.208Z,5.60
2023-03-10T15:05:31.902Z,6.63
2023-03-10T15:08:05.498Z,7.17
2023-03-10T15:10:38.614Z,7.50
2023-03-10T15:13:05.588Z,6.90
2023-03-10T15:15:41.929Z,6.80
2023-03-10T15:18:13.486Z,8.23
2023-03-10T15:20:40.513Z,8.23
2023-03-10T15:23:07.559Z,8.10
2023-03-10T15:25:34.243Z,7.20
2023-03-10T15:28:01.192Z,6.80
2023-03-10T15:30:34.038Z,7.53
2023-03-10T15:33:00.942Z,6.60
2023-03-10T15:35:29.311Z,6.43
2023-03-10T15:37:57.068Z,6.97
2023-03-10T15:40:30.111Z,7.13
2023-03-10T15:42:58.679Z,8.20
2023-03-10T15:45:28.136Z,7.50
2023-03-10T15:47:55.436Z,7.67
2023-03-10T15:50:23.059Z,7.30
2023-03-10T15:52:55.667Z,7.43
2023-03-10T15:55:22.875Z,7.20
2023-03-10T15:57:50.193Z,7.73
2023-03-10T16:00:22.113Z,6.80
2023-03-10T16:02:50.001Z,6.93
2023-03-10T16:05:19.494Z,7.33
2023-03-10T16:07:47.204Z,7.63
2023-03-10T16:10:17.087Z,7.77
2023-03-10T16:12:46.294Z,7.33
2023-03-10T16:15:16.292Z,7.33
2023-03-10T16:17:44.431Z,7.50
2023-03-10T16:20:12.845Z,8.25
2023-03-10T16:22:41.487Z,7.20
2023-03-10T16:25:11.826Z,8.13
2023-03-10T16:27:38.604Z,19.80
2023-03-10T16:30:06.414Z,8.20
2023-03-10T16:32:33.884Z,7.90
2023-03-10T16:35:00.877Z,8.33
2023-03-10T16:37:28.735Z,7.77
2023-03-10T16:39:56.174Z,8.10
2023-03-10T16:42:26.468Z,8.00
2023-03-10T16:44:57.086Z,7.60
2023-03-10T16:47:24.408Z,7.83
2023-03-10T16:49:51.194Z,6.83
2023-03-10T16:52:18.380Z,7.20
2023-03-10T16:54:46.620Z,7.00
2023-03-10T16:57:14.869Z,8.13
2023-03-10T16:59:42.805Z,7.37
2023-03-10T17:02:15.412Z,6.40
2023-03-10T17:04:46.441Z,7.23
2023-03-10T17:07:14.157Z,6.17
2023-03-10T17:09:41.127Z,6.73
2023-03-10T17:12:08.045Z,6.20
2023-03-10T17:14:34.881Z,6.10
2023-03-10T17:17:01.752Z,6.50
2023-03-10T17:19:30.181Z,6.20
2023-03-10T17:21:58.282Z,6.90
2023-03-10T17:24:25.946Z,6.40
2023-03-10T17:26:53.460Z,7.07
2023-03-10T17:29:20.941Z,6.90
2023-03-10T17:31:50.186Z,5.97
2023-03-10T17:34:18.058Z,5.73
2023-03-10T17:36:45.100Z,5.90
2023-03-10T17:39:18.993Z,5.97
2023-03-10T17:41:46.444Z,6.50
2023-03-10T17:44:13.218Z,6.60
2023-03-10T17:46:41.103Z,4.67
2023-03-10T17:49:11.833Z,5.70
2023-03-10T17:51:39.617Z,6.07
2023-03-10T17:54:07.409Z,6.20
2023-03-10T17:56:34.261Z,6.40
2023-03-10T17:59:01.019Z,5.53
2023-03-10T18:01:29.884Z,4.97
2023-03-10T18:03:58.591Z,5.17
2023-03-10T18:06:28.491Z,5.33
2023-03-10T18:08:57.034Z,5.13
2023-03-10T18:11:25.681Z,4.93
2023-03-10T18:13:52.839Z,5.00
2023-03-10T18:16:27.754Z,5.20
2023-03-10T18:18:56.030Z,5.27
2023-03-10T18:21:25.521Z,4.60
2023-03-10T18:23:53.046Z,4.23
2023-03-10T18:26:22.760Z,5.40
2023-03-10T18:28:49.505Z,5.33
2023-03-10T18:31:19.642Z,5.23
2023-03-10T18:33:46.908Z,4.30
2023-03-10T18:36:14.774Z,4.23
2023-03-10T18:38:41.997Z,4.17
2023-03-10T18:41:08.899Z,5.23
2023-03-10T18:43:35.887Z,4.67
2023-03-10T18:46:03.353Z,4.83
2023-03-10T18:48:30.250Z,4.70
2023-03-10T18:50:59.255Z,4.60
2023-03-10T18:53:27.598Z,4.30
2023-03-10T18:55:54.429Z,4.37
2023-03-10T18:58:22.118Z,4.30
2023-03-10T19:00:50.525Z,4.20
2023-03-10T19:03:18.400Z,3.97
2023-03-10T19:05:45.493Z,4.50
2023-03-10T19:08:14.345Z,4.63
2023-03-10T19:10:41.088Z,4.30
2023-03-10T19:13:08.022Z,3.87
2023-03-10T19:15:37.080Z,4.13
2023-03-10T19:18:04.225Z,4.10
2023-03-10T19:20:31.075Z,3.87
2023-03-10T19:22:57.843Z,4.30
2023-03-10T19:25:24.650Z,4.40
2023-03-10T19:27:51.475Z,3.80
2023-03-10T19:30:20.579Z,3.70
2023-03-10T19:32:48.001Z,4.37
2023-03-10T19:35:15.766Z,4.43
2023-03-10T19:37:46.170Z,4.23
2023-03-10T19:40:17.296Z,4.53
2023-03-10T19:42:44.549Z,4.57
2023-03-10T19:45:13.270Z,4.40
2023-03-10T19:47:41.609Z,3.97
2023-03-10T19:50:12.310Z,4.37
2023-03-10T19:52:46.803Z,4.30
2023-03-10T19:55:19.971Z,3.63
2023-03-10T19:57:48.716Z,3.80
2023-03-10T20:00:18.861Z,3.63
2023-03-10T20:02:46.336Z,4.50
2023-03-10T20:05:14.683Z,3.73
2023-03-10T20:07:45.095Z,3.83
2023-03-10T20:10:12.761Z,3.63
2023-03-10T20:12:39.746Z,4.13
2023-03-10T20:15:08.410Z,3.60
2023-03-10T20:17:35.523Z,3.57
2023-03-10T20:20:09.906Z,3.63
2023-03-10T20:22:39.000Z,3.90
2023-03-10T20:25:07.267Z,4.10
2023-03-10T20:27:34.510Z,3.80
2023-03-10T20:30:01.712Z,4.30
2023-03-10T20:32:28.733Z,4.73
2023-03-10T20:34:55.435Z,4.17
2023-03-10T20:37:22.158Z,4.53
2023-03-10T20:39:48.909Z,4.20
2023-03-10T20:42:15.638Z,4.43
2023-03-10T20:44:42.406Z,4.70
2023-03-10T20:47:09.146Z,4.37
2023-03-10T20:49:35.918Z,3.90
2023-03-10T20:52:03.258Z,3.87
2023-03-10T20:54:30.571Z,4.07
2023-03-10T20:57:00.613Z,3.93
2023-03-10T20:59:28.340Z,4.00
2023-03-10T21:01:54.976Z,4.37
2023-03-10T21:04:21.864Z,4.80
2023-03-10T21:06:48.615Z,4.97
2023-03-10T21:09:15.305Z,4.50
2023-03-10T21:11:42.125Z,4.30
2023-03-10T21:14:09.030Z,5.03
2023-03-10T21:16:41.601Z,4.80
2023-03-10T21:19:09.690Z,4.33
2023-03-10T21:21:36.587Z,4.60
2023-03-10T21:24:04.813Z,5.10
2023-03-10T21:26:32.089Z,5.00
2023-03-10T21:29:00.127Z,5.30
2023-03-10T21:31:26.929Z,5.87
2023-03-10T21:33:53.854Z,5.00
2023-03-10T21:36:23.743Z,5.07
2023-03-10T21:38:51.036Z,5.03
2023-03-10T21:41:19.926Z,5.20
2023-03-10T21:43:46.626Z,5.70
2023-03-10T21:46:13.501Z,5.67
2023-03-10T21:48:40.228Z,6.20
2023-03-10T21:51:09.806Z,5.77
2023-03-10T21:53:36.850Z,6.67
2023-03-10T21:56:03.789Z,6.60
2023-03-10T21:58:30.632Z,7.80
2023-03-10T22:00:57.473Z,6.60
2023-03-10T22:03:24.139Z,7.33
2023-03-10T22:05:50.862Z,6.50
2023-03-10T22:08:17.830Z,6.23
2023-03-10T22:10:45.607Z,6.20
2023-03-10T22:13:12.418Z,6.97
2023-03-10T22:15:39.682Z,7.47
2023-03-10T22:18:06.728Z,6.40
2023-03-10T22:20:33.471Z,7.07
2023-03-10T22:23:00.267Z,8.13
2023-03-10T22:25:26.991Z,7.27
2023-03-10T22:27:55.943Z,6.37
2023-03-10T22:30:24.975Z,6.03
2023-03-10T22:32:52.349Z,5.63
2023-03-10T22:35:19.494Z,5.20
2023-03-10T22:37:53.300Z,5.00
2023-03-10T22:40:23.264Z,6.30
2023-03-10T22:42:50.035Z,6.10
2023-03-10T22:45:29.438Z,6.50
2023-03-10T22:47:59.018Z,6.00
2023-03-10T22:50:37.757Z,5.50
2023-03-10T22:53:08.170Z,5.03
2023-03-10T22:55:35.761Z,6.47
2023-03-10T22:58:04.493Z,6.40
2023-03-10T23:00:32.274Z,5.80
2023-03-10T23:02:59.119Z,7.83
2023-03-10T23:05:26.981Z,5.77
2023-03-10T23:07:54.009Z,5.80
2023-03-10T23:10:29.907Z,5.87
2023-03-10T23:12:59.366Z,5.80
2023-03-10T23:15:28.797Z,5.97
2023-03-10T23:17:56.520Z,4.90
2023-03-10T23:20:27.399Z,5.43
2023-03-10T23:22:56.741Z,5.47
2023-03-10T23:25:30.574Z,5.43
2023-03-10T23:27:57.698Z,5.20
2023-03-10T23:30:25.923Z,5.63
2023-03-10T23:32:53.433Z,5.70
2023-03-10T23:35:24.044Z,6.27
2023-03-10T23:37:51.150Z,6.33
2023-03-10T23:40:20.215Z,6.40
2023-03-10T23:42:47.293Z,6.17
2023-03-10T23:45:18.166Z,5.93
2023-03-10T23:47:46.076Z,5.97
2023-03-10T23:50:32.940Z,6.17
2023-03-10T23:53:00.973Z,6.83
2023-03-10T23:55:32.103Z,5.73
2023-03-10T23:57:59.140Z,5.57
